Aktuální počasí v Česku a ve světě - METAR

Seznam meteostanic umístěných nejčasteji na letišti v ČR a ve světě

Vyhledat místa podle abecedy:
A B C D E F G H I J K L M N O P Q R S T U V W X Y Z

Filtrovat:

ID stanice:
a/nebo
Název místa (fulltext):
 
Místo (ID)Naposledy načteno 
Červená - Opava (Cervena/uL) 25.11.2020 03:00 UTC Zobrazit data
Místo: Červená - Opava
Teplota: -2 °C (pocitová: -13.2 °C)
Vítr: 7 m/s z(e) 210°
Počasí: zataženo
Dohlednost: 4000 m
Zákl. oblačnosti: 4/8 30 m
Vlhkost: 93%
České Budějovice (C.Budej/po) 25.11.2020 17:00 UTC Zobrazit data
Místo: České Budějovice
Teplota: 0 °C (pocitová: -5.9 °C)
Vítr: 2 m/s z(e) 130°
Počasí: zataženo
Dohlednost: 13 km
Zákl. oblačnosti: 5/8 210 m;7/8 270 m
Vlhkost: 93%
Cheb (Cheb) 25.11.2020 17:00 UTC Zobrazit data
Místo: Cheb
Teplota: 0 °C (pocitová: -5.9 °C)
Vítr: 2 m/s z(e) 90°
Počasí: zataženo
Dohlednost: 9 km
Zákl. oblačnosti: 8/8 120 m
Vlhkost: 93%
Chotusice - Čáslav (Caslav) 25.11.2020 17:00 UTC Zobrazit data
Místo: Chotusice - Čáslav
Teplota: 1 °C (pocitová: -7 °C)
Vítr: 4 m/s z(e) 140°
Počasí: zataženo
Dohlednost: 12 km
Zákl. oblačnosti: 8/8 420 m
Vlhkost: 87%
Churáňov (Churanov) 25.11.2020 17:00 UTC Zobrazit data
Místo: Churáňov
Teplota: 3 °C (pocitová: -0.6 °C)
Vítr: 1 m/s z(e) 220°
Počasí:
Dohlednost: 35 km
Zákl. oblačnosti: N/A
Vlhkost: 52%
Cairo (HECA) 25.11.2020 17:00 UTC Zobrazit METAR
HECA 251700Z 28010KT 9999 SCT025 SCT030 17/10 Q1013 NOSIG
Canberra (YSCB) 25.11.2020 06:00 UTC Zobrazit METAR
YSCB 250600Z AUTO 35010KT 9999 // SCT049 25/13 Q1011
Caracas (SVMP) Zatím nenačteno  
Cayenne (SOCA) 25.11.2020 17:00 UTC Zobrazit METAR
SOCA 251700Z AUTO 08011KT 040V110 CAVOK 31/22 Q1010 TEMPO 3000 SHRA FEW012TCU
Charlotte Amalie (TIST) 25.11.2020 16:53 UTC Zobrazit METAR
TIST 251653Z 30004KT 10SM SCT030 27/23 A2997 RMK AO2 SLP148 T02720228 $
Chisinau (LUKK) 25.11.2020 17:00 UTC Zobrazit METAR
LUKK 251700Z 29009KT CAVOK 02/M01 Q1023 R26/CLRD// NOSIG
Colombo (VCBI) 25.11.2020 16:10 UTC Zobrazit METAR
VCBI 251610Z 24005KT 210V280 9999 SCT017 29/24 Q1010 NOSIG
Conakry (GUCY) 23.11.2020 12:00 UTC Zobrazit METAR
GUCY 231200Z 18010KT 9999 BKN015 SCT110 30/26 Q1013 NOSIG
Constanta (LRCK) 25.11.2020 17:00 UTC Zobrazit METAR
LRCK 251700Z 27011KT CAVOK 06/01 Q1025 NOSIG
Constantine (DABC) 25.11.2020 17:00 UTC Zobrazit METAR
DABC 251700Z 25004KT CAVOK 13/02 Q1019
Copenhagen (EKCH) 25.11.2020 16:50 UTC Zobrazit METAR
EKCH 251650Z 20011KT 9000 BKN007 06/05 Q1015 TEMPO SCT008
Cork (EICK) 25.11.2020 17:00 UTC Zobrazit METAR
EICK 251700Z 33009KT 9999 FEW018 07/04 Q1018 NOSIG
Cotonou (DBBB) 25.11.2020 14:00 UTC Zobrazit METAR
DBBB 251400Z 20011KT 170V230 9999 SCT014 30/25 Q1008 NOSIG
Curacao Island (TNCC) 25.11.2020 16:00 UTC Zobrazit METAR
TNCC 251600Z 09011KT 9999 FEW024 31/23 Q1013 NOSIG
Reklama

Počasí na Váš email

Emaily jsou bez reklamy a bez spamu



Odhlásit newsletter


Další české internetové stránky (nejen) o počasí najdete v katalogu TOPlist - weby o počasí nebo vyhledejte na internetu, co jste tu na 🌞 Slunečnu ⛅ zatím nenašli:
⭐ Přidat Slunečno.cz do oblíbených | 🏠 Nastavit Slunečno.cz jako HOMEPAGE

⬆️ Posunout stránku nahoru ⬆️
Reklama